Flight Track Log - Related Links

Times and Time Zones

All times are in EDT time to prevent confusion due to time zone crossing. See the SWA193 flight status page for this flight to view local times or setup timezone preferences in your user account.

Time Position Orientation Groundspeed Altitude Reporting Facility
EDT Latitude Longitude Course Direction KTS MPH feet Rate Location/Type
Mon 07:42:47 AM 26.0750 -80.1319 83° East 148 170 1,100  Level Miami Center
Mon 07:44:00 AM 26.0828 -80.0653 83° East 217 250 3,200 2,373 Climbing Miami Center
Mon 07:45:01 AM 26.0989 -79.9917 76° East 239 275 6,400 2,683 Climbing Miami Center
Mon 07:46:03 AM 26.1381 -79.9233 57° Northeast 277 319 8,700 2,361 Climbing Miami Center
Mon 07:47:03 AM 26.1775 -79.8361 63° Northeast 300 345 11,200 2,750 Climbing Miami Center
Mon 07:48:03 AM 26.2253 -79.7378 62° Northeast 328 377 14,200 2,950 Climbing Miami Center
Mon 07:49:03 AM 26.2775 -79.6350 60° Northeast 354 407 17,100 2,400 Climbing Miami Center
Mon 07:50:03 AM 26.3442 -79.5367 53° Northeast 378 435 19,000 950 Climbing Miami Center
Mon 07:51:03 AM 26.4086 -79.4361 54° Northeast 391 450 19,000 650 Level Miami Center
Mon 07:52:03 AM 26.4750 -79.3378 53° Northeast 396 456 20,300 1,600 Climbing Miami Center
Mon 07:53:03 AM 26.5414 -79.2322 55° Northeast 406 467 22,200 1,950 Climbing Miami Center
Mon 07:54:03 AM 26.6122 -79.1244 54° Northeast 416 479 24,200 1,950 Climbing Miami Center
Mon 07:55:03 AM 26.7217 -79.0661 25° Northeast 416 479 26,100 1,950 Climbing Miami Center
Mon 07:56:03 AM 26.8414 -79.0194 19° North 421 484 28,100 1,900 Climbing Miami Center
Mon 07:57:03 AM 26.9592 -78.9728 19° North 431 496 29,900 2,100 Climbing Miami Center
Mon 07:58:03 AM 27.0894 -78.9192 20° North 441 507 32,300 2,200 Climbing Miami Center
Mon 07:59:03 AM 27.1944 -78.8814 18° North 441 507 34,300 1,600 Climbing Miami Center
Mon 08:00:03 AM 27.3078 -78.8436 16° North 435 501 35,500 1,200 Climbing Miami Center
Mon 08:01:03 AM 27.4375 -78.8222 North 424 488 36,700 750 Climbing Miami Center
Mon 08:02:03 AM 27.5567 -78.8011 North 430 495 37,000 150 Climbing Miami Center
Mon 08:03:03 AM 27.6781 -78.7819 North 430 495 37,000  Level Miami Center
Mon 08:04:03 AM 27.7850 -78.7603 10° North 430 495 37,000 50 Level Miami Center
Mon 08:05:03 AM 27.9000 -78.7433 North 424 488 37,100 600 Climbing Miami Center
Mon 08:06:03 AM 28.0214 -78.7219 North 424 488 38,200 950 Climbing Miami Center
Mon 08:07:03 AM 28.1364 -78.7003 North 424 488 39,000 400 Climbing Miami Center
Mon 08:08:03 AM 28.2578 -78.6761 10° North 435 501 39,000  Level Miami Center
Mon 08:09:03 AM 28.3792 -78.6569 North 440 506 39,000  Level Miami Center
Mon 08:10:03 AM 28.4983 -78.6353 North 440 506 39,000  Level Miami Center
Mon 08:11:03 AM 28.6217 -78.6136 North 440 506 39,000  Level Miami Center
Mon 08:12:03 AM 28.7411 -78.5894 10° North 440 506 39,000  Level Miami Center
Mon 08:13:03 AM 28.8644 -78.5700 North 434 499 39,000  Level Miami Center
Mon 08:14:03 AM 28.9856 -78.5458 10° North 439 505 39,000  Level Miami Center
Mon 08:15:03 AM 29.1028 -78.5236 North 439 505 39,000  Level Miami Center
Mon 08:16:03 AM 29.2242 -78.5017 North 439 505 39,000  Level Miami Center
Mon 08:17:03 AM 29.3472 -78.4822 North 439 505 39,000  Level Miami Center
Mon 08:18:03 AM 29.4667 -78.4578 10° North 434 499 39,000  Level Miami Center
Mon 08:19:03 AM 29.5856 -78.4333 10° North 434 499 39,000  Level Miami Center
Mon 08:19:39 AM 29.6494 -78.4122 16° North 430 495 39,000  Level Jacksonville Center
Mon 08:20:39 AM 29.7803 -78.3967 North 437 503 39,000  Level Jacksonville Center
Mon 08:21:39 AM 29.8961 -78.3697 11° North 443 510 39,000  Level Jacksonville Center
Mon 08:22:39 AM 30.0311 -78.3514 North 455 524 39,000  Level Jacksonville Center
Mon 08:23:39 AM 30.1400 -78.2983 23° Northeast 443 510 39,000  Level Jacksonville Center
Mon 08:24:39 AM 30.2556 -78.2614 15° North 435 501 39,000  Level Jacksonville Center
Mon 08:25:39 AM 30.3792 -78.2217 15° North 440 506 39,000  Level Jacksonville Center
Mon 08:26:39 AM 30.4967 -78.1822 16° North 448 516 39,000  Level Jacksonville Center
Mon 08:27:39 AM 30.6183 -78.1425 16° North 448 516 39,000  Level Jacksonville Center
Mon 08:28:39 AM 30.7464 -78.1047 14° North 447 514 39,000  Level Jacksonville Center
Mon 08:29:39 AM 30.8575 -78.0650 17° North 447 514 39,000  Level Jacksonville Center
Mon 08:30:39 AM 30.9836 -78.0272 14° North 447 514 39,000  Level Jacksonville Center
Mon 08:31:39 AM 31.1128 -77.9719 20° North 447 514 39,000  Level Jacksonville Center
Mon 08:32:39 AM 31.2325 -77.9367 14° North 444 511 39,000  Level Jacksonville Center
Mon 08:33:39 AM 31.3542 -77.8986 15° North 443 510 39,000  Level Jacksonville Center
Mon 08:34:39 AM 31.4733 -77.8483 20° North 449 517 39,000  Level Jacksonville Center
Mon 08:35:39 AM 31.5947 -77.8075 16° North 445 512 39,000  Level Jacksonville Center
Mon 08:36:39 AM 31.7042 -77.7747 14° North 456 525 39,000  Level Jacksonville Center
Mon 08:37:39 AM 31.8258 -77.7411 13° North 450 518 39,000  Level Jacksonville Center
Mon 08:38:39 AM 31.9469 -77.6903 20° North 450 518 39,000  Level Jacksonville Center
Mon 08:39:39 AM 32.0667 -77.6564 13° North 446 513 39,000  Level Jacksonville Center
Mon 08:40:39 AM 32.1881 -77.6153 16° North 451 519 39,000  Level Jacksonville Center
Mon 08:41:39 AM 32.3092 -77.5689 18° North 451 519 39,000  Level Jacksonville Center
Mon 08:42:39 AM 32.4286 -77.5300 15° North 451 519 39,000  Level Jacksonville Center
Mon 08:43:39 AM 32.5500 -77.4908 15° North 451 519 39,000  Level Jacksonville Center
Mon 08:44:39 AM 32.6714 -77.4467 17° North 451 519 39,000  Level Jacksonville Center
Mon 08:45:39 AM 32.7947 -77.4044 16° North 451 519 39,000  Level Jacksonville Center
Mon 08:46:53 AM 32.9386 -77.3581 15° North 449 517 39,000  Level Washington Center
Mon 08:47:53 AM 33.0600 -77.3161 16° North 449 517 39,000  Level Washington Center
Mon 08:48:52 AM 33.1839 -77.2714 17° North 454 522 39,000  Level Washington Center
Mon 08:49:52 AM 33.3053 -77.2292 16° North 454 522 39,000  Level Washington Center
Mon 08:50:52 AM 33.4247 -77.1892 16° North 454 522 39,000  Level Washington Center
Mon 08:51:53 AM 33.5464 -77.1442 17° North 454 522 39,000  Level Washington Center
Mon 08:52:53 AM 33.6700 -77.1014 16° North 454 522 39,000  Level Washington Center
Mon 08:53:54 AM 33.7914 -77.0614 15° North 454 522 39,000  Level Washington Center
Mon 08:54:54 AM 33.9089 -77.0158 18° North 454 522 39,000  Level Washington Center
Mon 08:55:54 AM 34.0283 -76.9753 16° North 449 517 39,000  Level Washington Center
Mon 08:56:53 AM 34.1497 -76.9347 15° North 449 517 39,000  Level Washington Center
Mon 08:57:52 AM 34.2692 -76.8914 17° North 444 511 39,000  Level Washington Center
Mon 08:58:53 AM 34.3842 -76.8478 17° North 436 502 39,000  Level Washington Center
Mon 08:59:53 AM 34.5058 -76.8069 15° North 436 502 39,000  Level Washington Center
Mon 09:00:52 AM 34.6208 -76.7656 16° North 436 502 39,000  Level Washington Center
Mon 09:01:52 AM 34.7444 -76.7244 15° North 442 509 39,000  Level Washington Center
Mon 09:02:53 AM 34.8594 -76.6806 17° North 437 503 39,000  Level Washington Center
Mon 09:03:53 AM 34.9789 -76.6364 17° North 437 503 39,000  Level Washington Center
Mon 09:04:54 AM 35.0939 -76.5922 17° North 437 503 39,000  Level Washington Center
Mon 09:05:54 AM 35.2133 -76.5481 17° North 437 503 39,000  Level Washington Center
Mon 09:06:52 AM 35.3472 -76.4986 17° North 437 503 39,000  Level Washington Center
Mon 09:07:52 AM 35.4622 -76.4567 17° North 437 503 39,000  Level Washington Center
Mon 09:08:52 AM 35.5817 -76.4067 19° North 437 503 39,000  Level Washington Center
Mon 09:09:53 AM 35.7028 -76.3672 15° North 437 503 39,000  Level Washington Center
Mon 09:10:54 AM 35.8219 -76.3194 18° North 437 503 39,000  Level Washington Center
Mon 09:11:52 AM 35.9433 -76.2769 16° North 437 503 39,000  Level Washington Center
Mon 09:12:52 AM 36.0647 -76.2319 17° North 437 503 39,000  Level Washington Center
Mon 09:13:53 AM 36.1858 -76.1839 18° North 437 503 39,000  Level Washington Center
Mon 09:14:53 AM 36.3069 -76.1411 16° North 437 503 39,000  Level Washington Center
Mon 09:15:54 AM 36.4303 -76.0953 17° North 437 503 39,000  Level Washington Center
Mon 09:16:52 AM 36.5517 -76.0497 17° North 443 510 39,000  Level Washington Center
Mon 09:17:52 AM 36.6728 -76.0011 18° North 449 517 39,000  Level Washington Center
Mon 09:18:52 AM 36.7981 -75.9550 16° North 449 517 39,000  Level Washington Center
Mon 09:19:53 AM 36.9192 -75.9061 18° North 454 522 39,000  Level Washington Center
Mon 09:20:53 AM 37.0339 -75.8650 16° North 472 543 39,000  Level Washington Center
Mon 09:21:54 AM 37.1572 -75.8186 17° North 472 543 39,000  Level Washington Center
Mon 09:22:52 AM 37.2783 -75.7744 16° North 461 531 39,000  Level Washington Center
Mon 09:23:53 AM 37.3992 -75.7253 18° North 461 531 39,000  Level Washington Center
Mon 09:24:53 AM 37.5203 -75.6783 17° North 461 531 39,000  Level Washington Center
Mon 09:25:54 AM 37.6392 -75.6128 24° Northeast 455 524 39,000  Level Washington Center
Mon 09:26:52 AM 37.7519 -75.5367 28° Northeast 455 524 39,000  Level Washington Center
Mon 09:27:52 AM 37.8664 -75.4628 27° Northeast 455 524 39,000  Level Washington Center
Mon 09:28:52 AM 37.9789 -75.3917 26° Northeast 450 518 39,000  Level Washington Center
Mon 09:29:53 AM 38.0956 -75.3147 27° Northeast 450 518 39,000  Level Washington Center
Mon 09:30:53 AM 38.2081 -75.2431 27° Northeast 450 518 39,000  Level Washington Center
Mon 09:31:54 AM 38.3225 -75.1631 29° Northeast 450 518 39,000  Level Washington Center
Mon 09:32:54 AM 38.4369 -75.0881 27° Northeast 456 525 39,000  Level Washington Center
Mon 09:33:54 AM 38.5492 -75.0103 28° Northeast 456 525 39,000  Level Washington Center
Mon 09:34:52 AM 38.6614 -74.9350 28° Northeast 450 518 39,000 -1,119 Level Washington Center
Mon 09:35:52 AM 38.7775 -74.8619 26° Northeast 455 524 36,800 -2,262 Descending Washington Center
Mon 09:36:54 AM 38.8958 -74.7781 29° Northeast 460 529 34,400 -2,213 Descending Washington Center
Mon 09:37:54 AM 39.0119 -74.7019 27° Northeast 466 536 32,300 -2,107 Descending Washington Center
Mon 09:39:05 AM 39.1483 -74.6097 28° Northeast 470 541 29,800 -2,061 Descending New York Center
Mon 09:40:05 AM 39.2572 -74.5353 28° Northeast 458 527 27,800 -2,085 Descending New York Center
Mon 09:41:03 AM 39.3442 -74.4244 45° Northeast 434 499 25,700 -2,067 Descending New York Center
Mon 09:42:04 AM 39.4208 -74.3019 51° Northeast 434 499 23,700 -1,967 Descending New York Center
Mon 09:43:05 AM 39.4972 -74.1850 50° Northeast 434 499 21,700 -1,339 Descending New York Center
Mon 09:44:05 AM 39.5694 -74.0697 51° Northeast 415 478 21,000 -545 Descending New York Center
Mon 09:45:06 AM 39.6411 -73.9572 50° Northeast 403 464 20,600 -793 Descending New York Center
Mon 09:46:06 AM 39.7153 -73.8392 51° Northeast 398 458 19,400 -1,119 Descending New York Center
Mon 09:47:04 AM 39.7828 -73.7314 51° Northeast 387 445 18,400 -823 Descending New York Center
Mon 09:49:01 AM 39.9092 -73.5328 50° Northeast 396 456 17,000 -881 Descending Boston Center
Mon 09:50:01 AM 39.9953 -73.4367 41° Northeast 380 437 15,800 -1,100 Descending Boston Center
Mon 09:51:01 AM 40.0669 -73.3511 42° Northeast 360 414 14,800 -1,200 Descending Boston Center
Mon 09:52:01 AM 40.1236 -73.2814 43° Northeast 354 407 13,400 -1,850 Descending Boston Center
Mon 09:53:01 AM 40.2078 -73.1819 42° Northeast 341 392 11,100 -1,650 Descending Boston Center
Mon 09:54:01 AM 40.2750 -73.1011 43° Northeast 336 387 10,100 -1,050 Descending Boston Center
Mon 09:55:01 AM 40.3358 -73.0308 41° Northeast 315 362 9,000 -985 Descending Boston Center
Mon 09:57:16 AM 40.4667 -72.8667 44° Northeast 279 321 6,900 -1,046 Descending New York TRACON
Mon 09:58:16 AM 40.5333 -72.8333 21° North 277 319 5,600 -1,300 Descending New York TRACON
Mon 09:59:16 AM 40.6000 -72.8500 349° North 273 314 4,300 -800 Descending New York TRACON
Mon 10:00:16 AM 40.6667 -72.8833 339° North 264 304 4,000 -150 Descending New York TRACON
Mon 10:01:16 AM 40.7500 -72.9000 351° North 256 295 4,000 -450 Level New York TRACON
Mon 10:02:16 AM 40.8000 -72.9333 333° Northwest 236 272 3,100 -1,000 Descending New York TRACON
Mon 10:03:16 AM 40.8333 -73.0000 303° West 214 246 2,000 -1,000 Descending New York TRACON
Mon 10:04:16 AM 40.8333 -73.0500 270° West 174 200 1,100 -895 Descending New York TRACON
Mon 10:05:10 AM 40.8167 -73.0833 237° Southwest 136 157 300 -889 Descending New York TRACON

Login

Don't have an account? Register now (free) for customized features, flight alerts, and more!